Time;durP1;ratioP1;P1;durP2;ratioP2;P2;SDS_P1;SDS_P2;PMS_P1;PMS_P2;Temp;Humidity;BMP_temperature;BMP_pressure;BME280_temperature;BME280_humidity;BME280_pressure;Samples;Min_cycle;Max_cycle;Signal;HPM_P1;HPM_P2
2022/06/20 00:00:58;;;;;;;21.60;19.40;;;;;;;16.85;100.00;98481.09;2089681;28;20544;-69
2022/06/20 00:02:02;;;;;;;21.63;19.80;;;;;;;16.86;100.00;98473.78;2098061;28;20476;-69
2022/06/20 00:03:08;;;;;;;22.00;19.70;;;;;;;16.83;100.00;98479.84;2098818;28;20416;-68
2022/06/20 00:04:12;;;;;;;22.60;20.33;;;;;;;16.83;100.00;98471.78;2098493;28;20431;-69
2022/06/20 00:05:14;;;;;;;22.73;20.57;;;;;;;16.81;100.00;98474.81;2097747;28;20981;-70
2022/06/20 00:06:19;;;;;;;22.70;20.43;;;;;;;16.79;100.00;98465.53;2097461;28;20935;-71
2022/06/20 00:07:19;;;;;;;22.83;20.40;;;;;;;16.79;100.00;98473.63;2098522;28;20452;-69
2022/06/20 00:08:22;;;;;;;22.40;20.30;;;;;;;16.77;100.00;98470.50;2097771;28;20436;-69
2022/06/20 00:09:24;;;;;;;23.97;19.97;;;;;;;16.74;100.00;98469.28;2098095;28;20198;-69
2022/06/20 00:10:28;;;;;;;24.67;20.80;;;;;;;16.72;100.00;98468.84;2099728;28;20434;-69
2022/06/20 00:11:32;;;;;;;22.20;20.23;;;;;;;16.69;100.00;98472.25;2099999;28;20436;-69
2022/06/20 00:12:34;;;;;;;22.37;20.13;;;;;;;16.66;100.00;98468.28;2099656;28;20543;-68
2022/06/20 00:13:35;;;;;;;22.53;20.27;;;;;;;16.65;100.00;98471.34;2099626;28;20843;-70
2022/06/20 00:14:36;;;;;;;23.50;20.50;;;;;;;16.63;100.00;98476.31;2099299;28;20445;-69
2022/06/20 00:15:47;;;;;;;21.70;19.63;;;;;;;16.60;100.00;98479.72;2099619;28;20479;-69
2022/06/20 00:16:51;;;;;;;21.00;19.30;;;;;;;16.58;100.00;98473.88;2100006;28;20808;-69
2022/06/20 00:17:55;;;;;;;22.20;20.13;;;;;;;16.57;100.00;98475.78;2099370;28;20433;-68
2022/06/20 00:18:57;;;;;;;23.20;19.67;;;;;;;16.62;100.00;98477.44;2099340;28;20472;-69
2022/06/20 00:19:57;;;;;;;21.37;19.50;;;;;;;16.63;100.00;98471.69;2099903;28;20194;-69
2022/06/20 00:20:59;;;;;;;21.53;19.63;;;;;;;16.67;100.00;98469.09;2099443;28;20509;-70
2022/06/20 00:22:01;;;;;;;20.90;19.03;;;;;;;16.73;100.00;98472.31;2099592;28;20215;-69
2022/06/20 00:23:05;;;;;;;21.50;19.50;;;;;;;16.75;100.00;98461.97;2099478;28;21001;-68
2022/06/20 00:24:07;;;;;;;20.80;19.00;;;;;;;16.78;100.00;98462.06;2099552;28;20448;-69
2022/06/20 00:25:09;;;;;;;20.63;18.90;;;;;;;16.82;100.00;98468.31;2099316;28;20432;-69
2022/06/20 00:26:10;;;;;;;20.80;19.00;;;;;;;16.86;100.00;98468.41;2099818;28;20617;-69
2022/06/20 00:27:12;;;;;;;21.20;19.37;;;;;;;16.88;100.00;98461.50;2100072;28;20424;-69
2022/06/20 00:28:13;;;;;;;24.20;19.70;;;;;;;16.90;100.00;98466.53;2099842;28;20190;-69
2022/06/20 00:29:16;;;;;;;23.77;20.23;;;;;;;16.91;100.00;98462.72;2099838;28;20432;-69
2022/06/20 00:30:19;;;;;;;20.70;18.90;;;;;;;16.93;100.00;98465.84;2099187;28;21051;-69
2022/06/20 00:31:23;;;;;;;22.03;20.03;;;;;;;16.93;100.00;98476.63;2099322;28;20462;-69
2022/06/20 00:32:23;;;;;;;21.33;19.47;;;;;;;16.93;100.00;98471.22;2100050;28;21020;-69
2022/06/20 00:33:25;;;;;;;20.63;18.63;;;;;;;16.94;100.00;98478.19;2099865;28;20919;-69
2022/06/20 00:34:26;;;;;;;21.37;19.67;;;;;;;16.93;100.00;98476.63;2099809;28;20229;-69
2022/06/20 00:35:27;;;;;;;23.07;19.67;;;;;;;16.92;100.00;98483.91;2099168;28;20983;-69
2022/06/20 00:36:30;;;;;;;21.20;19.33;;;;;;;16.90;100.00;98480.03;2098772;28;20234;-69
2022/06/20 00:37:32;;;;;;;20.63;18.93;;;;;;;16.89;100.00;98481.94;2099218;28;20427;-69
2022/06/20 00:38:35;;;;;;;21.13;19.33;;;;;;;16.91;100.00;98479.66;2100013;28;20429;-69
2022/06/20 00:39:36;;;;;;;22.90;20.57;;;;;;;16.94;100.00;98486.28;2099114;28;20510;-69
2022/06/20 00:40:39;;;;;;;20.57;18.87;;;;;;;16.96;100.00;98489.41;2099215;28;20456;-69
2022/06/20 00:41:40;;;;;;;21.40;19.60;;;;;;;16.96;100.00;98486.72;2099825;28;20871;-69
2022/06/20 00:42:41;;;;;;;21.40;19.53;;;;;;;16.98;100.00;98484.44;2100026;28;20460;-69
2022/06/20 00:43:46;;;;;;;21.17;19.27;;;;;;;17.00;100.00;98489.47;2099772;28;20420;-69
2022/06/20 00:44:50;;;;;;;21.97;20.07;;;;;;;17.00;100.00;98487.56;2099814;28;20251;-69
2022/06/20 00:45:54;;;;;;;22.43;20.20;;;;;;;17.08;100.00;98491.97;2099790;28;20785;-70
2022/06/20 00:47:00;;;;;;;25.70;20.10;;;;;;;17.12;100.00;98482.06;2099824;28;20459;-69
2022/06/20 00:48:05;;;;;;;22.73;20.57;;;;;;;17.17;100.00;98492.53;2100010;28;20795;-69
2022/06/20 00:49:09;;;;;;;21.33;19.53;;;;;;;17.15;100.00;98485.94;2099332;28;20544;-69
2022/06/20 00:50:15;;;;;;;22.23;20.17;;;;;;;17.15;100.00;98496.72;2099255;28;20433;-69
2022/06/20 00:51:22;;;;;;;21.67;19.67;;;;;;;17.17;100.00;98497.94;2098588;28;20444;-69
2022/06/20 00:52:27;;;;;;;22.50;20.37;;;;;;;17.13;100.00;98499.00;2099383;28;20440;-70
2022/06/20 00:53:32;;;;;;;22.00;20.03;;;;;;;17.11;100.00;98501.25;2099914;28;20428;-69
2022/06/20 00:54:37;;;;;;;21.57;19.60;;;;;;;17.07;100.00;98503.09;2099730;28;20447;-68
2022/06/20 00:55:44;;;;;;;23.23;20.90;;;;;;;17.05;100.00;98500.00;2099865;28;20398;-70
2022/06/20 00:56:53;;;;;;;22.97;20.70;;;;;;;17.07;100.00;98492.31;2099192;28;20543;-69
2022/06/20 00:57:58;;;;;;;22.47;20.20;;;;;;;17.12;100.00;98494.75;2099378;28;20769;-69
2022/06/20 00:59:03;;;;;;;22.43;20.23;;;;;;;17.17;100.00;98502.53;2099070;28;20449;-69
2022/06/20 01:00:09;;;;;;;21.97;20.07;;;;;;;17.21;100.00;98501.50;2099357;28;20424;-69
2022/06/20 01:01:12;;;;;;;22.20;20.27;;;;;;;17.21;100.00;98498.81;2099005;28;20456;-69
2022/06/20 01:02:18;;;;;;;22.97;20.63;;;;;;;17.19;100.00;98495.66;2099019;28;20429;-69
2022/06/20 01:03:28;;;;;;;22.37;20.17;;;;;;;17.14;100.00;98492.47;2099715;28;20509;-70
2022/06/20 01:04:34;;;;;;;22.33;20.07;;;;;;;17.10;100.00;98491.59;2099418;28;20879;-69
2022/06/20 01:05:38;;;;;;;21.87;19.90;;;;;;;17.06;100.00;98490.75;2098892;28;20556;-69
2022/06/20 01:06:46;;;;;;;21.53;19.73;;;;;;;17.10;100.00;98491.59;2098718;28;20490;-69
2022/06/20 01:07:51;;;;;;;21.27;19.53;;;;;;;17.11;100.00;98485.06;2099831;28;20488;-69
2022/06/20 01:08:54;;;;;;;21.47;19.50;;;;;;;17.13;100.00;98490.91;2099161;28;20471;-69
2022/06/20 01:09:58;;;;;;;21.93;19.53;;;;;;;17.14;100.00;98497.88;2099017;28;20424;-69
2022/06/20 01:11:04;;;;;;;21.63;19.83;;;;;;;17.17;100.00;98500.63;2099637;28;20432;-69
2022/06/20 01:12:10;;;;;;;21.43;19.67;;;;;;;17.22;100.00;98499.59;2099793;28;20401;-69
2022/06/20 01:13:14;;;;;;;21.53;19.53;;;;;;;17.32;100.00;98490.16;2099125;28;20482;-69
2022/06/20 01:14:22;;;;;;;23.60;19.77;;;;;;;17.33;100.00;98495.19;2098987;28;20456;-69
2022/06/20 01:15:26;;;;;;;21.40;19.60;;;;;;;17.35;100.00;98486.75;2099504;28;20456;-69
2022/06/20 01:16:30;;;;;;;22.13;20.13;;;;;;;17.34;100.00;98485.97;2099526;28;20944;-69
2022/06/20 01:17:38;;;;;;;21.17;19.30;;;;;;;17.32;100.00;98487.47;2098828;28;20464;-69
2022/06/20 01:18:40;;;;;;;21.80;19.77;;;;;;;17.27;100.00;98485.81;2099182;28;20454;-69
2022/06/20 01:19:47;;;;;;;25.70;19.57;;;;;;;17.25;100.00;98482.69;2099496;28;20903;-70
2022/06/20 01:20:48;;;;;;;21.50;19.70;;;;;;;17.20;100.00;98478.38;2099530;28;20754;-69
2022/06/20 01:21:50;;;;;;;21.63;19.90;;;;;;;17.16;100.00;98476.72;2098398;28;20556;-69
2022/06/20 01:23:00;;;;;;;21.80;19.60;;;;;;;17.11;100.00;98477.00;2099018;28;20444;-69
2022/06/20 01:24:21;;;;;;;21.13;19.33;;;;;;;17.03;100.00;98480.66;2092142;28;20446;-69
2022/06/20 01:25:48;;;;;;;21.17;19.30;;;;;;;16.94;100.00;98476.28;2099302;28;20504;-69
2022/06/20 01:26:53;;;;;;;24.87;20.10;;;;;;;16.90;100.00;98488.09;2097513;28;20447;-70
2022/06/20 01:27:55;;;;;;;22.13;20.23;;;;;;;16.79;100.00;98477.09;2098752;28;20821;-68
2022/06/20 01:29:00;;;;;;;21.63;19.87;;;;;;;16.74;100.00;98482.75;2098969;28;20779;-69
2022/06/20 01:30:02;;;;;;;22.23;20.10;;;;;;;16.67;100.00;98487.94;2099612;28;20435;-69
2022/06/20 01:31:07;;;;;;;21.87;19.70;;;;;;;16.62;100.00;98489.00;2099363;28;20994;-69
2022/06/20 01:32:08;;;;;;;22.30;20.20;;;;;;;16.58;100.00;98488.13;2099589;28;20405;-69
2022/06/20 01:33:11;;;;;;;22.03;20.10;;;;;;;16.55;100.00;98485.34;2099375;28;20435;-69
2022/06/20 01:34:13;;;;;;;22.47;20.17;;;;;;;16.52;100.00;98488.75;2099457;28;20190;-69
2022/06/20 01:37:23;;;;;;;22.30;20.20;;;;;;;16.48;100.00;98480.56;2098644;28;20516;-69
2022/06/20 01:38:02;;;;;;;21.83;19.90;;;;;;;16.36;100.00;98486.06;2098631;28;20437;-69
2022/06/20 01:39:02;;;;;;;22.47;20.27;;;;;;;16.32;100.00;98480.56;2090453;28;20444;-70
2022/06/20 01:40:08;;;;;;;21.93;19.73;;;;;;;16.30;100.00;98495.53;2099119;28;20440;-69
2022/06/20 01:42:29;;;;;;;21.23;19.37;;;;;;;16.26;100.00;98482.00;2098667;28;20428;-70
2022/06/20 01:43:33;;;;;;;21.67;19.80;;;;;;;16.26;100.00;98465.84;2098685;28;20421;-69
2022/06/20 01:44:38;;;;;;;22.93;20.50;;;;;;;16.25;100.00;98461.59;2099289;28;20420;-69
2022/06/20 01:46:59;;;;;;;22.13;20.03;;;;;;;16.26;100.00;98471.22;2098853;28;20488;-68
2022/06/20 01:48:01;;;;;;;21.70;20.10;;;;;;;16.26;100.00;98465.84;2099235;28;20432;-70
2022/06/20 01:49:05;;;;;;;22.60;20.47;;;;;;;16.24;100.00;98484.22;2099223;28;20436;-70
2022/06/20 01:50:07;;;;;;;21.77;20.03;;;;;;;16.26;100.00;98487.38;2099236;28;20472;-69
2022/06/20 01:51:18;;;;;;;21.83;19.97;;;;;;;16.21;100.00;98479.53;2098916;28;20421;-68
2022/06/20 01:52:23;;;;;;;22.57;20.17;;;;;;;16.20;100.00;98485.28;2099195;28;20433;-69
2022/06/20 01:53:30;;;;;;;21.87;19.97;;;;;;;16.13;100.00;98472.41;2099259;28;20868;-68
2022/06/20 01:54:34;;;;;;;21.07;19.37;;;;;;;16.20;100.00;98469.91;2098556;28;20444;-69
2022/06/20 01:55:36;;;;;;;21.50;19.80;;;;;;;16.17;100.00;98465.22;2098692;28;20459;-69
2022/06/20 01:56:37;;;;;;;21.57;19.57;;;;;;;16.13;100.00;98461.66;2099103;28;20986;-69
2022/06/20 01:57:42;;;;;;;21.37;19.40;;;;;;;16.15;100.00;98456.69;2098510;28;20797;-69
2022/06/20 01:58:46;;;;;;;21.83;19.77;;;;;;;16.15;100.00;98472.84;2098062;28;20206;-69
2022/06/20 01:59:53;;;;;;;20.90;18.97;;;;;;;16.12;100.00;98462.78;2090538;28;20454;-69
2022/06/20 02:00:54;;;;;;;21.93;19.93;;;;;;;16.10;100.00;98467.75;2090954;28;20492;-69
2022/06/20 02:01:57;;;;;;;20.57;18.97;;;;;;;16.08;100.00;98470.78;2098255;28;20452;-69
2022/06/20 02:03:02;;;;;;;23.87;19.97;;;;;;;16.08;100.00;98472.69;2099230;28;20182;-69
2022/06/20 02:04:13;;;;;;;21.53;19.73;;;;;;;16.05;100.00;98459.91;2099226;28;20894;-69
2022/06/20 02:05:18;;;;;;;22.17;20.07;;;;;;;16.03;100.00;98456.78;2098442;28;20546;-70
2022/06/20 02:06:20;;;;;;;21.13;19.33;;;;;;;16.01;100.00;98462.53;2098224;28;20544;-69
2022/06/20 02:07:21;;;;;;;22.07;20.07;;;;;;;16.02;100.00;98460.63;2090262;28;20935;-70
2022/06/20 02:08:25;;;;;;;21.80;19.60;;;;;;;16.00;100.00;98462.88;2098710;28;20877;-69
2022/06/20 02:09:26;;;;;;;21.50;19.73;;;;;;;15.97;100.00;98461.63;2099327;28;20244;-69
2022/06/20 02:10:31;;;;;;;20.23;18.73;;;;;;;15.98;100.00;98463.19;2099069;28;20428;-69
2022/06/20 02:11:34;;;;;;;20.83;18.83;;;;;;;15.99;100.00;98464.00;2099197;28;20447;-69
2022/06/20 02:12:38;;;;;;;20.50;18.67;;;;;;;16.02;100.00;98466.00;2098997;28;20863;-70
2022/06/20 02:13:43;;;;;;;20.97;19.10;;;;;;;16.01;100.00;98454.44;2099235;28;20424;-69
2022/06/20 02:14:49;;;;;;;20.70;19.00;;;;;;;16.00;100.00;98454.81;2099039;28;20412;-69
2022/06/20 02:15:53;;;;;;;20.83;18.80;;;;;;;15.98;100.00;98454.34;2099314;28;20401;-69
2022/06/20 02:16:58;;;;;;;20.90;18.93;;;;;;;15.98;100.00;98459.72;2099243;28;20420;-69
2022/06/20 02:18:02;;;;;;;20.50;18.70;;;;;;;15.94;100.00;98469.63;2099209;28;20428;-69
2022/06/20 02:19:07;;;;;;;20.57;19.07;;;;;;;15.92;100.00;98472.66;2099016;28;20903;-69
2022/06/20 02:20:12;;;;;;;21.07;19.33;;;;;;;16.06;100.00;98489.16;2099001;28;20429;-69
2022/06/20 02:21:16;;;;;;;21.63;19.73;;;;;;;16.23;100.00;98498.81;2098602;28;20793;-69
2022/06/20 02:22:19;;;;;;;22.73;20.73;;;;;;;16.32;100.00;98501.34;2099253;28;20401;-69
2022/06/20 02:23:23;;;;;;;22.70;20.67;;;;;;;16.32;100.00;98493.25;2098280;28;20444;-69
2022/06/20 02:24:30;;;;;;;21.60;19.80;;;;;;;16.29;100.00;98483.19;2098440;28;20416;-69
2022/06/20 02:25:35;;;;;;;21.30;19.50;;;;;;;16.27;100.00;98477.38;2099188;28;20409;-69
2022/06/20 02:26:38;;;;;;;21.97;20.10;;;;;;;16.23;100.00;98466.50;2098200;28;20551;-69
2022/06/20 02:27:43;;;;;;;21.53;19.83;;;;;;;16.21;100.00;98454.53;2090433;28;20460;-69
2022/06/20 02:28:48;;;;;;;21.13;19.47;;;;;;;16.17;100.00;98451.78;2098359;28;20471;-69
2022/06/20 02:29:50;;;;;;;21.80;19.90;;;;;;;16.17;100.00;98448.31;2099061;28;20413;-69
2022/06/20 02:30:52;;;;;;;21.97;20.00;;;;;;;16.16;100.00;98466.38;2099029;28;20424;-69
2022/06/20 02:31:55;;;;;;;22.93;20.23;;;;;;;16.14;100.00;98465.13;2098905;28;20437;-69
2022/06/20 02:33:09;;;;;;;21.67;19.53;;;;;;;16.10;100.00;98473.13;2098005;28;20455;-69
2022/06/20 02:34:09;;;;;;;22.23;19.70;;;;;;;16.07;100.00;98463.84;2097822;28;20464;-69
2022/06/20 02:35:12;;;;;;;21.17;19.10;;;;;;;16.09;100.00;98460.81;2098493;28;20436;-69
2022/06/20 02:36:13;;;;;;;21.87;19.03;;;;;;;16.09;100.00;98455.41;2098039;28;20684;-69
2022/06/20 02:37:20;;;;;;;21.07;19.17;;;;;;;16.08;100.00;98459.25;2098831;28;20428;-69
2022/06/20 02:38:22;;;;;;;21.33;19.30;;;;;;;16.08;100.00;98453.84;2098892;28;20496;-69
2022/06/20 02:39:25;;;;;;;21.33;19.30;;;;;;;16.07;100.00;98457.66;2098218;28;20490;-70
2022/06/20 02:40:26;;;;;;;21.07;18.90;;;;;;;16.06;100.00;98464.16;2098311;28;20922;-69
2022/06/20 02:41:29;;;;;;;20.33;18.73;;;;;;;16.05;100.00;98460.69;2098842;28;21013;-69
2022/06/20 02:42:34;;;;;;;21.33;19.53;;;;;;;15.99;100.00;98451.34;2098882;28;20786;-68
2022/06/20 02:43:38;;;;;;;32.43;20.43;;;;;;;16.03;100.00;98454.09;2098449;28;20429;-69
2022/06/20 02:44:41;;;;;;;20.20;18.60;;;;;;;16.08;100.00;98453.84;2098064;28;20917;-69
2022/06/20 02:45:47;;;;;;;20.30;18.60;;;;;;;16.11;100.00;98448.56;2098485;28;20474;-69
2022/06/20 02:46:49;;;;;;;21.77;19.73;;;;;;;16.15;100.00;98453.22;2098121;28;20590;-69
2022/06/20 02:47:53;;;;;;;22.00;19.77;;;;;;;16.19;100.00;98454.91;2098495;28;20437;-68
2022/06/20 02:48:54;;;;;;;22.37;20.23;;;;;;;16.21;100.00;98463.41;2098105;28;20551;-69
2022/06/20 02:49:58;;;;;;;21.50;19.50;;;;;;;16.18;100.00;98461.41;2098189;28;20424;-69
2022/06/20 02:51:01;;;;;;;22.13;20.07;;;;;;;16.16;100.00;98460.16;2098222;28;20860;-69
2022/06/20 02:52:05;;;;;;;21.57;19.77;;;;;;;16.13;100.00;98467.03;2098140;28;20443;-69
2022/06/20 02:53:17;;;;;;;21.50;19.50;;;;;;;16.09;100.00;98461.56;2098386;28;20803;-68
2022/06/20 02:54:22;;;;;;;21.90;19.93;;;;;;;16.07;100.00;98463.03;2099018;28;20838;-68
2022/06/20 02:55:23;;;;;;;22.23;20.03;;;;;;;16.06;100.00;98461.47;2098761;28;20436;-69
2022/06/20 02:56:27;;;;;;;22.40;20.20;;;;;;;16.04;100.00;98458.34;2098872;28;20516;-69
2022/06/20 02:57:32;;;;;;;22.07;20.17;;;;;;;16.02;100.00;98461.41;2098942;28;20428;-69
2022/06/20 02:58:36;;;;;;;20.83;19.17;;;;;;;16.02;100.00;98469.47;2098762;28;20467;-69
2022/06/20 02:59:42;;;;;;;21.40;19.37;;;;;;;16.01;100.00;98467.91;2098768;28;20455;-69
2022/06/20 03:00:50;;;;;;;21.37;19.47;;;;;;;16.00;100.00;98473.63;2098767;28;20488;-69
2022/06/20 03:01:53;;;;;;;21.40;19.53;;;;;;;15.96;100.00;98464.69;2098112;28;20511;-69
2022/06/20 03:03:00;;;;;;;21.70;19.90;;;;;;;15.98;100.00;98465.09;2098153;28;20892;-69
2022/06/20 03:04:01;;;;;;;21.70;19.70;;;;;;;15.97;100.00;98463.56;2098081;28;20444;-69
2022/06/20 03:05:03;;;;;;;22.53;20.53;;;;;;;15.98;100.00;98465.09;2097998;28;20471;-69
2022/06/20 03:06:08;;;;;;;22.17;19.77;;;;;;;15.99;100.00;98466.69;2097483;28;20535;-68
2022/06/20 03:07:17;;;;;;;23.17;20.10;;;;;;;16.00;100.00;98469.03;2098360;28;20523;-69
2022/06/20 03:08:18;;;;;;;21.87;19.83;;;;;;;16.00;100.00;98465.56;2098953;28;20401;-69
2022/06/20 03:09:24;;;;;;;22.43;19.90;;;;;;;16.02;100.00;98466.00;2098014;28;21004;-69
2022/06/20 03:10:28;;;;;;;22.07;20.03;;;;;;;16.03;100.00;98464.88;2090317;28;20302;-69
2022/06/20 03:11:32;;;;;;;22.17;20.00;;;;;;;16.03;100.00;98464.88;2090292;28;20966;-69
2022/06/20 03:12:33;;;;;;;21.47;19.50;;;;;;;16.00;100.00;98463.66;2089758;28;20448;-69
2022/06/20 03:13:41;;;;;;;22.17;20.13;;;;;;;16.00;100.00;98468.25;2098181;28;20420;-69
2022/06/20 03:14:45;;;;;;;21.27;19.47;;;;;;;16.04;100.00;98466.44;2098097;28;20452;-69
2022/06/20 03:15:50;;;;;;;21.83;19.80;;;;;;;16.07;100.00;98463.03;2098133;28;20412;-69
2022/06/20 03:16:51;;;;;;;22.23;20.00;;;;;;;16.08;100.00;98464.63;2098681;28;20416;-69
2022/06/20 03:17:57;;;;;;;21.23;19.20;;;;;;;16.09;100.00;98460.81;2098680;28;20432;-69
2022/06/20 03:19:00;;;;;;;20.73;18.90;;;;;;;16.11;100.00;98464.69;2098676;28;20170;-69
2022/06/20 03:20:07;;;;;;;20.47;18.83;;;;;;;16.16;100.00;98462.88;2098815;28;20478;-69
2022/06/20 03:21:09;;;;;;;20.70;18.90;;;;;;;16.16;100.00;98470.94;2097472;28;20456;-68
2022/06/20 03:22:15;;;;;;;22.17;19.87;;;;;;;16.18;100.00;98477.56;2098268;28;20943;-69
2022/06/20 03:23:19;;;;;;;20.83;19.10;;;;;;;16.23;100.00;98481.88;2098592;28;20433;-69
2022/06/20 03:24:24;;;;;;;21.20;19.37;;;;;;;16.19;100.00;98476.44;2098846;28;20488;-69
2022/06/20 03:25:25;;;;;;;21.40;19.60;;;;;;;16.19;100.00;98487.19;2098322;28;20452;-69
2022/06/20 03:26:27;;;;;;;21.10;19.07;;;;;;;16.21;100.00;98484.94;2098060;28;20428;-69
2022/06/20 03:27:31;;;;;;;21.07;19.00;;;;;;;16.23;100.00;98466.50;2098675;28;20190;-70
2022/06/20 03:28:34;;;;;;;21.20;19.27;;;;;;;16.24;100.00;98470.75;2098858;28;20417;-69
2022/06/20 03:29:38;;;;;;;22.67;19.33;;;;;;;16.25;100.00;98458.91;2098598;28;20428;-69
2022/06/20 03:30:39;;;;;;;21.07;18.93;;;;;;;16.29;100.00;98470.50;2097963;28;20448;-69
2022/06/20 03:31:42;;;;;;;21.90;19.73;;;;;;;16.36;100.00;98476.06;2097987;28;21057;-69
2022/06/20 03:32:45;;;;;;;20.60;18.97;;;;;;;16.43;100.00;98466.63;2098103;28;20456;-69
2022/06/20 03:33:48;;;;;;;20.47;18.67;;;;;;;16.54;100.00;98468.41;2097930;28;20424;-69
2022/06/20 03:34:50;;;;;;;20.30;18.60;;;;;;;16.62;100.00;98464.75;2089905;28;20454;-69
2022/06/20 03:35:55;;;;;;;20.57;18.87;;;;;;;16.69;100.00;98461.47;2098076;28;20416;-70
2022/06/20 03:36:56;;;;;;;21.10;19.07;;;;;;;16.73;100.00;98456.94;2098371;28;20444;-69
2022/06/20 03:37:58;;;;;;;20.30;18.60;;;;;;;16.78;100.00;98461.28;2098732;28;20467;-69
2022/06/20 03:39:00;;;;;;;21.53;19.07;;;;;;;16.80;100.00;98451.72;2098943;28;20421;-69
2022/06/20 03:40:01;;;;;;;20.57;18.87;;;;;;;16.81;100.00;98453.28;2098826;28;20468;-69
2022/06/20 03:41:04;;;;;;;21.27;19.27;;;;;;;16.86;100.00;98458.41;2098664;28;20923;-69
2022/06/20 03:42:05;;;;;;;21.23;19.23;;;;;;;16.91;100.00;98457.31;2098673;28;20481;-68
2022/06/20 03:43:09;;;;;;;21.03;19.07;;;;;;;16.97;100.00;98464.00;2098611;28;20482;-69
2022/06/20 03:44:15;;;;;;;20.97;19.37;;;;;;;16.99;100.00;98469.81;2098794;28;20198;-69
2022/06/20 03:45:16;;;;;;;20.40;18.80;;;;;;;17.02;100.00;98468.34;2098975;28;20535;-69
2022/06/20 03:46:19;;;;;;;21.10;19.30;;;;;;;17.02;100.00;98466.41;2099746;28;20432;-70
2022/06/20 03:47:27;;;;;;;20.87;18.87;;;;;;;17.02;100.00;98462.94;2099444;28;20472;-69
2022/06/20 03:48:30;;;;;;;20.93;19.20;;;;;;;17.09;100.00;98465.78;2099864;28;20926;-69
2022/06/20 03:49:35;;;;;;;22.03;19.77;;;;;;;17.10;100.00;98465.44;2100098;28;20432;-69
2022/06/20 03:50:38;;;;;;;21.17;19.47;;;;;;;17.14;100.00;98462.81;2099732;28;20448;-69
2022/06/20 03:51:43;;;;;;;20.60;19.00;;;;;;;17.16;100.00;98457.84;2105878;28;20801;-69
2022/06/20 03:52:47;;;;;;;21.07;19.17;;;;;;;17.20;100.00;98450.59;2107887;28;20957;-69
2022/06/20 03:53:54;;;;;;;20.77;19.10;;;;;;;17.23;100.00;98447.22;2108161;28;20442;-69
2022/06/20 03:54:59;;;;;;;21.80;19.73;;;;;;;17.24;100.00;98444.16;2100329;28;20428;-69
2022/06/20 03:56:06;;;;;;;20.90;19.10;;;;;;;17.24;100.00;98452.25;2107988;28;20423;-69
2022/06/20 03:57:11;;;;;;;20.67;19.07;;;;;;;17.27;100.00;98449.97;2108690;28;20471;-70
2022/06/20 03:58:15;;;;;;;21.60;19.63;;;;;;;17.30;100.00;98457.38;2107842;28;20447;-70
2022/06/20 03:59:19;;;;;;;21.50;19.53;;;;;;;17.34;100.00;98475.16;2107902;28;20427;-70
2022/06/20 04:00:24;;;;;;;21.03;19.03;;;;;;;17.37;100.00;98473.66;2108706;28;20423;-69
2022/06/20 04:01:29;;;;;;;20.40;18.83;;;;;;;17.39;100.00;98476.81;2108778;28;20766;-69
2022/06/20 04:02:37;;;;;;;21.03;19.13;;;;;;;17.42;100.00;98479.56;2108551;28;20404;-69
2022/06/20 04:03:43;;;;;;;22.30;19.93;;;;;;;17.42;100.00;98466.09;2107836;28;20503;-70
2022/06/20 04:04:48;;;;;;;25.03;19.97;;;;;;;17.40;100.00;98465.66;2100039;28;20482;-69
2022/06/20 04:05:53;;;;;;;22.10;20.13;;;;;;;17.43;100.00;98475.75;2099921;28;20436;-69
2022/06/20 04:06:57;;;;;;;21.80;20.10;;;;;;;17.46;100.00;98466.97;2099460;28;20472;-70
2022/06/20 04:08:03;;;;;;;21.33;19.13;;;;;;;17.50;100.00;98467.78;2099706;28;20790;-70
2022/06/20 04:11:56;;;;;;;21.00;19.10;;;;;;;17.44;100.00;98466.50;2100195;28;20436;-69
2022/06/20 04:13:02;;;;;;;20.57;18.60;;;;;;;17.44;100.00;98469.22;2100052;28;20468;-69
2022/06/20 04:14:05;;;;;;;20.13;18.53;;;;;;;17.45;100.00;98470.75;2099339;28;20475;-69
2022/06/20 04:15:14;;;;;;;21.17;19.30;;;;;;;17.51;100.00;98474.75;2091417;28;20451;-69
2022/06/20 04:16:18;;;;;;;20.90;18.83;;;;;;;17.55;100.00;98468.63;2099588;28;20433;-69
2022/06/20 04:18:48;;;;;;;20.87;19.00;;;;;;;17.72;100.00;98479.81;2100001;28;20400;-69
2022/06/20 04:19:52;;;;;;;21.27;19.20;;;;;;;17.72;100.00;98493.31;2100140;28;20397;-69
2022/06/20 04:21:00;;;;;;;21.00;19.00;;;;;;;17.62;100.00;98491.13;2099509;28;20416;-69
2022/06/20 04:22:06;;;;;;;21.10;19.27;;;;;;;17.70;100.00;98494.78;2099976;28;20922;-70
2022/06/20 04:23:11;;;;;;;23.70;19.60;;;;;;;17.69;100.00;98502.06;2100227;28;20412;-69
2022/06/20 04:24:19;;;;;;;20.80;18.90;;;;;;;17.76;100.00;98490.66;2099911;28;20421;-69
2022/06/20 04:25:28;;;;;;;20.30;18.70;;;;;;;17.90;100.00;98492.84;2099983;28;20436;-69
2022/06/20 04:26:35;;;;;;;20.93;19.10;;;;;;;17.97;100.00;98496.44;2100185;28;20401;-69
2022/06/20 04:27:39;;;;;;;20.73;18.83;;;;;;;18.00;100.00;98490.34;2099659;28;21022;-69
2022/06/20 04:28:47;;;;;;;20.80;19.03;;;;;;;18.03;100.00;98486.91;2099985;28;20447;-69
2022/06/20 04:29:52;;;;;;;23.23;19.37;;;;;;;18.06;100.00;98486.19;2099993;28;20461;-69
2022/06/20 04:30:58;;;;;;;21.37;19.47;;;;;;;18.08;100.00;98477.75;2099990;28;20916;-69
2022/06/20 04:32:01;;;;;;;20.73;18.77;;;;;;;18.10;100.00;98483.56;2099947;28;20409;-69
2022/06/20 04:33:07;;;;;;;20.50;18.70;;;;;;;18.14;100.00;98483.59;2099985;28;20420;-69
2022/06/20 04:34:16;;;;;;;21.10;19.17;;;;;;;18.20;100.00;98482.97;2099998;28;20932;-68
2022/06/20 04:35:20;;;;;;;19.40;17.90;;;;;;;18.25;100.00;98484.59;2099173;28;20429;-69
2022/06/20 04:36:39;;;;;;;21.57;19.37;;;;;;;18.29;100.00;98480.00;2098836;28;20456;-69
2022/06/20 04:37:44;;;;;;;23.20;19.60;;;;;;;18.35;100.00;98481.28;2100031;28;20542;-69
2022/06/20 04:38:50;;;;;;;21.27;19.37;;;;;;;18.40;100.00;98480.97;2099962;28;20394;-69
2022/06/20 04:39:55;;;;;;;21.70;19.47;;;;;;;18.43;100.00;98485.66;2099124;28;20444;-69
2022/06/20 04:41:09;;;;;;;21.40;19.37;;;;;;;18.51;100.00;98495.44;2099344;28;20484;-68
2022/06/20 04:42:19;;;;;;;20.73;18.90;;;;;;;18.49;100.00;98492.28;2099946;28;20444;-69
2022/06/20 04:43:26;;;;;;;21.00;19.30;;;;;;;18.53;100.00;98493.16;2099782;28;20901;-69
2022/06/20 04:44:33;;;;;;;20.30;18.67;;;;;;;18.56;100.00;98500.50;2099913;28;20407;-69
2022/06/20 04:45:38;;;;;;;21.50;19.60;;;;;;;18.66;100.00;98507.25;2099137;28;20870;-70
2022/06/20 04:46:43;;;;;;;20.33;18.40;;;;;;;18.66;100.00;98503.78;2091575;28;20860;-70
2022/06/20 04:47:49;;;;;;;22.27;20.07;;;;;;;18.74;100.00;98505.44;2099010;28;21024;-70
2022/06/20 04:48:50;;;;;;;21.90;19.97;;;;;;;18.77;100.00;98502.03;2099235;28;20409;-70
2022/06/20 04:49:54;;;;;;;22.07;20.07;;;;;;;18.83;100.00;98504.03;2099079;28;20441;-71
2022/06/20 04:50:58;;;;;;;21.93;19.80;;;;;;;18.84;100.00;98500.19;2090453;28;20803;-75
2022/06/20 04:51:59;;;;;;;24.03;21.60;;;;;;;18.87;100.00;98504.09;2099317;28;20436;-74
2022/06/20 04:53:05;;;;;;;21.83;20.23;;;;;;;18.91;100.00;98505.69;2099673;28;20425;-73
2022/06/20 04:54:15;;;;;;;20.33;18.80;;;;;;;18.93;100.00;98502.63;2099724;28;20864;-70
2022/06/20 04:55:22;;;;;;;20.63;18.87;;;;;;;19.00;100.00;98502.72;2099262;28;20429;-68
2022/06/20 04:56:26;;;;;;;20.10;18.60;;;;;;;19.06;100.00;98509.38;2098367;28;20490;-67
2022/06/20 04:57:32;;;;;;;20.40;18.77;;;;;;;19.08;100.00;98503.59;2099679;28;20477;-68
2022/06/20 04:58:36;;;;;;;21.27;19.30;;;;;;;19.10;100.00;98504.78;2099892;28;20417;-67
2022/06/20 04:59:38;;;;;;;21.77;19.43;;;;;;;19.15;100.00;98501.00;2099630;28;20420;-67
2022/06/20 05:00:41;;;;;;;20.83;18.90;;;;;;;19.20;100.00;98501.47;2098946;28;20527;-67
2022/06/20 05:01:43;;;;;;;20.10;18.60;;;;;;;19.21;100.00;98504.97;2098981;28;20436;-67